Pagrindinis puslapis
METAR-TAF:

METAR-TAF

Oro uostai :

Podgoricos oro uostas

Podgorica, Juodkalnija

platuma: 42-26N, ilguma: 019-17E, Aukštis: 53 m

Dabartinis oras

Ataskaita buvo paskelbta 15 minutes, ne 13:00 UTC
Vėjas 3 kt iš Pietų, svyruoja nuo Rytų/Pietryčių ir Vakarų/Pietvakarių
Temperatūra 22°C
Drėgmė 23%
Slėgis 1030 hPa
Matomumas 10 km arba daugiau
nėra debesų žemiau 1500 m ir nėra kamuolinių lietaus debesų

METAR: LYPG 251300Z 18003KT 120V240 CAVOK 22/00 Q1030 NOSIG

Laikas: 14:15 (13:15 UTC)

Prognozė

Ataskaita buvo paskelbta 2 valandos ir 15 minutes, ne 11:00 UTC
Prognozė galioja nuo 25 metu 12 UTC su 26 metu 12 UTC
Vėjas 6 kt iš Pietų/Pietryčių
Matomumas 10 km arba daugiau
nėra debesų žemiau 1500 m ir nėra kamuolinių lietaus debesų

TAF: LYPG 251100Z 2512/2612 15006KT CAVOK TX22/2513Z TN03/2605Z

Orai ataskaitas ir orų prognozės (METAR, TAF).

turimą stotys yra geltonos ir raudonos taškus žemėlapyje.

Perkelti pele per norėdami pamatyti stoties vardą.

Tada spustelėkite, norėdami matyti oro stebėjimo ir prognozės.

Norėdami pakeisti žemėlapį: spustelėkite ant žalios mygtukų su juodo kryžiaus žemyn,; žalią mygtuką su brūkšneliu, jei norite nutolinti; arba žalių rodyklių gretimoms žemėlapius.


METAR-TAF: